Terminal Aerodrome Forecast
Issued by NWS Wilmington, OH

Current Version | Previous Version | Graphics & Text | Print | Product List | Glossary On
Versions: 1 2 3 4 5 6 7 8 9 10 11 12 13 14 15 16 17 18 19 20 21 22 23 24 25 26
000
FTUS41 KILN 230540
TAFDAY
TAF
KDAY 230540Z 2306/2406 12010KT 1SM -DZ BR OVC003
     FM231000 14006KT 2SM -SHRA BR OVC008
     FM231500 23012KT 5SM BR VCSH OVC006
     FM231800 23012KT P6SM OVC008
     FM232200 27009KT P6SM OVC015
      TEMPO 2323/2403 SCT012 OVC100=

USA.gov is the U.S. government's official web portal to all federal, state and local government web resources and services.